Time;durP1;ratioP1;P1;durP2;ratioP2;P2;SDS_P1;SDS_P2;PMS_P1;PMS_P2;Temp;Humidity;BMP_temperature;BMP_pressure;BME280_temperature;BME280_humidity;BME280_pressure;Samples;Min_cycle;Max_cycle;Signal;HPM_P1;HPM_P2
2022/03/27 00:00:50;;;;;;;17.07;15.30;;;13.20;58.50;;;;;;5073405;28;20471;-64
2022/03/27 00:03:17;;;;;;;18.37;14.80;;;13.20;58.80;;;;;;5073198;28;20456;-64
2022/03/27 00:05:44;;;;;;;16.53;14.73;;;13.10;59.00;;;;;;5072987;28;20476;-65
2022/03/27 00:08:12;;;;;;;16.77;13.73;;;13.10;59.20;;;;;;5073179;28;20448;-64
2022/03/27 00:13:23;;;;;;;18.30;13.70;;;13.10;59.50;;;;;;5073960;28;20490;-64
2022/03/27 00:15:49;;;;;;;15.33;13.70;;;13.10;59.80;;;;;;5077250;28;20447;-64
2022/03/27 00:18:16;;;;;;;15.83;14.13;;;13.10;60.00;;;;;;5076934;28;20479;-64
2022/03/27 00:20:43;;;;;;;18.20;14.70;;;13.10;60.10;;;;;;5076744;28;20468;-64
2022/03/27 00:23:10;;;;;;;19.27;15.17;;;13.00;60.30;;;;;;5076243;28;20858;-64
2022/03/27 00:25:38;;;;;;;23.13;14.70;;;13.10;60.60;;;;;;5076321;28;20455;-64
2022/03/27 00:28:05;;;;;;;14.00;12.60;;;13.00;60.90;;;;;;5076486;28;20848;-65
2022/03/27 00:30:32;;;;;;;18.63;14.70;;;13.00;61.00;;;;;;5076363;28;20812;-65
2022/03/27 00:32:58;;;;;;;19.50;15.13;;;12.90;60.60;;;;;;5076417;28;20439;-65
2022/03/27 00:35:25;;;;;;;16.67;14.30;;;12.90;60.60;;;;;;5076277;28;20452;-65
2022/03/27 00:37:52;;;;;;;14.87;13.13;;;12.80;61.00;;;;;;5076265;28;20448;-65
2022/03/27 00:40:19;;;;;;;15.70;13.37;;;12.80;61.40;;;;;;5076047;28;20452;-65
2022/03/27 00:42:47;;;;;;;14.13;12.70;;;12.70;61.60;;;;;;5075981;28;20539;-65
2022/03/27 00:45:14;;;;;;;19.43;11.93;;;12.70;61.70;;;;;;5076914;28;20452;-65
2022/03/27 00:47:43;;;;;;;14.37;12.53;;;12.70;62.10;;;;;;5075943;28;20529;-65
2022/03/27 00:50:10;;;;;;;15.27;12.00;;;12.60;62.30;;;;;;5076018;28;20487;-65
2022/03/27 00:52:37;;;;;;;14.00;12.27;;;12.50;62.40;;;;;;5075852;28;20468;-65
2022/03/27 00:55:04;;;;;;;14.87;12.60;;;12.50;62.80;;;;;;5075855;28;20839;-65
2022/03/27 00:57:31;;;;;;;15.93;11.60;;;12.50;63.10;;;;;;5075918;28;20448;-65
2022/03/27 00:59:59;;;;;;;14.30;12.50;;;12.40;63.40;;;;;;5075838;28;20814;-64
2022/03/27 01:02:26;;;;;;;14.87;12.70;;;12.40;63.80;;;;;;5075377;28;20998;-64
2022/03/27 01:04:56;;;;;;;14.37;12.57;;;12.40;64.10;;;;;;5075842;28;20452;-65
2022/03/27 01:07:23;;;;;;;14.10;12.60;;;12.30;63.60;;;;;;5075594;28;20476;-65
2022/03/27 01:09:49;;;;;;;15.00;11.90;;;12.30;63.50;;;;;;5075694;28;20437;-65
2022/03/27 01:12:22;;;;;;;13.27;11.87;;;12.30;63.50;;;;;;5075511;28;20535;-65
2022/03/27 01:14:49;;;;;;;14.17;12.60;;;12.20;63.40;;;;;;5075754;28;20516;-65
2022/03/27 01:17:20;;;;;;;13.33;11.17;;;12.20;63.80;;;;;;5075632;28;20445;-65
2022/03/27 01:19:49;;;;;;;13.83;11.53;;;12.10;64.30;;;;;;5075162;28;20453;-65
2022/03/27 01:22:19;;;;;;;12.53;10.20;;;12.10;64.90;;;;;;5075345;28;20472;-65
2022/03/27 01:24:46;;;;;;;14.97;11.40;;;12.10;64.90;;;;;;5075035;28;20448;-65
2022/03/27 01:27:13;;;;;;;12.40;11.03;;;12.00;65.00;;;;;;5075204;28;20891;-65
2022/03/27 01:29:40;;;;;;;11.90;10.63;;;12.00;65.10;;;;;;5074989;28;20966;-65
2022/03/27 01:32:10;;;;;;;12.87;11.43;;;11.90;64.90;;;;;;5075086;28;20480;-64
2022/03/27 01:34:37;;;;;;;12.13;10.10;;;11.80;64.50;;;;;;5075070;28;20495;-65
2022/03/27 01:37:07;;;;;;;12.43;10.33;;;11.80;64.60;;;;;;5075079;28;20486;-65
2022/03/27 01:39:35;;;;;;;14.63;9.97;;;11.70;64.80;;;;;;5075039;28;20486;-64
2022/03/27 01:42:03;;;;;;;16.10;11.20;;;11.60;65.00;;;;;;5074625;28;21007;-65
2022/03/27 01:44:29;;;;;;;14.63;11.40;;;11.60;65.50;;;;;;5074880;28;20444;-65
2022/03/27 01:46:57;;;;;;;15.27;11.10;;;11.60;66.20;;;;;;5074758;28;20491;-65
2022/03/27 01:49:24;;;;;;;13.10;9.90;;;11.50;66.60;;;;;;5074774;28;20522;-65
2022/03/27 01:51:51;;;;;;;12.17;10.80;;;11.60;66.60;;;;;;5074626;28;20483;-65
2022/03/27 01:54:19;;;;;;;12.00;10.00;;;11.50;66.20;;;;;;5074737;28;20449;-65
2022/03/27 01:56:47;;;;;;;12.03;9.57;;;11.50;66.60;;;;;;5074584;28;20462;-65
2022/03/27 01:59:14;;;;;;;12.20;10.40;;;11.50;66.90;;;;;;5074556;28;20456;-65
2022/03/27 02:01:41;;;;;;;12.07;10.20;;;11.40;67.20;;;;;;5074510;28;20469;-65
2022/03/27 02:04:08;;;;;;;10.50;8.70;;;11.40;67.50;;;;;;5074391;28;20445;-65
2022/03/27 02:06:37;;;;;;;13.40;9.63;;;11.40;68.10;;;;;;5074421;28;20469;-65
2022/03/27 02:09:04;;;;;;;11.70;9.80;;;11.40;68.40;;;;;;5074593;28;20455;-65
2022/03/27 02:11:31;;;;;;;12.53;9.67;;;11.40;68.60;;;;;;5074327;28;20472;-65
2022/03/27 02:13:59;;;;;;;11.40;9.17;;;11.40;68.80;;;;;;5074325;28;20455;-65
2022/03/27 02:16:26;;;;;;;12.77;9.97;;;11.40;69.10;;;;;;5074187;28;20452;-64
2022/03/27 02:18:52;;;;;;;8.90;7.90;;;11.40;69.40;;;;;;5073855;28;20471;-65
2022/03/27 02:21:19;;;;;;;12.17;10.13;;;11.40;69.50;;;;;;5074275;28;20468;-65
2022/03/27 02:23:46;;;;;;;10.83;8.60;;;11.40;69.40;;;;;;5074043;28;20447;-65
2022/03/27 02:26:13;;;;;;;10.00;8.97;;;11.40;69.70;;;;;;5073976;28;20472;-65
2022/03/27 02:28:40;;;;;;;11.03;9.83;;;11.40;69.20;;;;;;5074065;28;20449;-65
2022/03/27 02:31:08;;;;;;;11.37;9.63;;;11.40;69.00;;;;;;5073758;28;20534;-65
2022/03/27 02:33:36;;;;;;;10.40;8.50;;;11.30;68.80;;;;;;5073894;28;20510;-64
2022/03/27 02:36:03;;;;;;;10.57;9.53;;;11.30;68.90;;;;;;5073289;28;20465;-64
2022/03/27 02:38:30;;;;;;;9.43;8.40;;;11.30;69.10;;;;;;5073883;28;20445;-65
2022/03/27 02:40:56;;;;;;;10.47;9.37;;;11.20;69.30;;;;;;5073675;28;20467;-65
2022/03/27 02:43:23;;;;;;;13.20;9.00;;;11.20;69.40;;;;;;5073676;28;20459;-63
2022/03/27 02:45:51;;;;;;;12.00;9.40;;;11.20;70.40;;;;;;5073746;28;20452;-63
2022/03/27 02:48:19;;;;;;;12.63;9.77;;;11.20;71.50;;;;;;5073642;28;20550;-64
2022/03/27 02:50:47;;;;;;;11.97;10.13;;;11.20;72.30;;;;;;5073850;28;20824;-65
2022/03/27 02:53:13;;;;;;;10.57;8.97;;;11.20;72.70;;;;;;5073490;28;20487;-65
2022/03/27 02:55:40;;;;;;;12.60;8.30;;;11.20;73.60;;;;;;5073610;28;20849;-64
2022/03/27 02:58:07;;;;;;;11.57;9.10;;;11.20;73.60;;;;;;5073551;28;20444;-65
2022/03/27 03:00:34;;;;;;;12.10;10.00;;;11.20;73.20;;;;;;5073705;28;20460;-65
2022/03/27 03:03:01;;;;;;;9.20;8.30;;;11.20;73.10;;;;;;5073779;28;20448;-65
2022/03/27 03:05:30;;;;;;;12.60;8.20;;;11.20;73.20;;;;;;5073544;28;20453;-64
2022/03/27 03:07:58;;;;;;;12.77;9.10;;;11.10;73.40;;;;;;5073106;28;20931;-64
2022/03/27 03:10:25;;;;;;;10.20;8.97;;;11.10;73.80;;;;;;5073401;28;20576;-65
2022/03/27 03:12:52;;;;;;;10.10;8.83;;;11.10;74.30;;;;;;5073522;28;20453;-65
2022/03/27 03:15:19;;;;;;;12.07;9.03;;;11.10;74.70;;;;;;5073392;28;20456;-65
2022/03/27 03:17:45;;;;;;;9.43;8.47;;;11.00;73.90;;;;;;5073432;28;20440;-64
2022/03/27 03:20:13;;;;;;;9.97;8.97;;;11.00;74.60;;;;;;5073158;28;20483;-65
2022/03/27 03:22:41;;;;;;;9.83;8.50;;;11.00;74.90;;;;;;5073266;28;20457;-65
2022/03/27 03:25:09;;;;;;;11.17;9.17;;;10.90;74.70;;;;;;5073260;28;20445;-65
2022/03/27 03:27:36;;;;;;;10.70;9.37;;;10.90;75.00;;;;;;5073183;28;20523;-65
2022/03/27 03:30:05;;;;;;;10.90;8.93;;;10.90;75.40;;;;;;5073281;28;20455;-65
2022/03/27 03:32:34;;;;;;;10.23;9.13;;;10.90;75.60;;;;;;5073163;28;20468;-64
2022/03/27 03:35:01;;;;;;;9.90;8.87;;;10.80;75.40;;;;;;5073144;28;20456;-64
2022/03/27 03:37:28;;;;;;;10.27;9.00;;;10.80;75.50;;;;;;5073386;28;20447;-65
2022/03/27 03:39:56;;;;;;;10.53;9.43;;;10.80;75.30;;;;;;5073188;28;20448;-65
2022/03/27 03:42:23;;;;;;;9.73;7.93;;;10.80;75.60;;;;;;5073030;28;20465;-65
2022/03/27 03:44:50;;;;;;;11.13;8.57;;;10.70;75.80;;;;;;5073135;28;20449;-65
2022/03/27 03:47:16;;;;;;;11.87;8.97;;;10.70;76.20;;;;;;5073760;28;20978;-64
2022/03/27 03:49:43;;;;;;;11.30;8.13;;;10.70;77.30;;;;;;5077256;28;20456;-64
2022/03/27 03:52:10;;;;;;;9.60;7.47;;;10.60;76.40;;;;;;5077196;28;20472;-64
2022/03/27 03:54:37;;;;;;;9.50;7.60;;;10.60;76.70;;;;;;5077321;28;20448;-64
2022/03/27 03:57:06;;;;;;;14.23;9.60;;;10.60;76.50;;;;;;5076791;28;20936;-64
2022/03/27 03:59:36;;;;;;;12.13;8.80;;;10.60;76.70;;;;;;5077878;28;20470;-64
2022/03/27 04:02:03;;;;;;;11.13;8.87;;;10.60;77.30;;;;;;5083517;28;20475;-65
2022/03/27 04:04:30;;;;;;;12.07;8.47;;;10.60;78.20;;;;;;5082907;28;20441;-65
2022/03/27 04:06:57;;;;;;;10.00;8.70;;;10.60;78.30;;;;;;5082314;28;20506;-65
2022/03/27 04:09:24;;;;;;;9.27;7.93;;;10.50;77.80;;;;;;5081909;28;20456;-65
2022/03/27 04:11:52;;;;;;;10.70;8.63;;;10.50;78.30;;;;;;5082074;28;20472;-65
2022/03/27 04:14:20;;;;;;;11.93;8.97;;;10.50;78.70;;;;;;5082434;28;20455;-65
2022/03/27 04:16:48;;;;;;;14.63;9.50;;;10.50;78.50;;;;;;5081823;28;20448;-65
2022/03/27 04:19:15;;;;;;;9.77;8.27;;;10.50;78.30;;;;;;5081847;28;20471;-65
2022/03/27 04:21:42;;;;;;;13.03;8.93;;;10.50;78.50;;;;;;5081751;28;20471;-65
2022/03/27 04:24:09;;;;;;;10.13;8.20;;;10.50;78.50;;;;;;5081847;28;20455;-65
2022/03/27 04:26:39;;;;;;;11.10;9.10;;;10.40;78.70;;;;;;5081905;28;20428;-65
2022/03/27 04:29:05;;;;;;;10.97;8.10;;;10.40;79.00;;;;;;5081863;28;20498;-65
2022/03/27 04:31:34;;;;;;;9.60;8.60;;;10.30;79.10;;;;;;5082035;28;20468;-65
2022/03/27 04:34:00;;;;;;;11.37;8.23;;;10.40;79.70;;;;;;5081669;28;20444;-63
2022/03/27 04:36:27;;;;;;;8.90;7.97;;;10.40;80.10;;;;;;5081711;28;20447;-65
2022/03/27 04:38:54;;;;;;;9.97;8.80;;;10.30;80.10;;;;;;5082248;28;20951;-64
2022/03/27 04:41:20;;;;;;;9.10;7.50;;;10.30;79.50;;;;;;5081371;28;20522;-65
2022/03/27 04:43:48;;;;;;;9.90;8.80;;;10.30;79.10;;;;;;5081438;28;20453;-64
2022/03/27 04:46:15;;;;;;;10.63;8.40;;;10.30;79.10;;;;;;5081759;28;20820;-66
2022/03/27 04:48:43;;;;;;;13.50;9.87;;;10.30;79.30;;;;;;5081679;28;21024;-66
2022/03/27 04:51:11;;;;;;;10.73;8.27;;;10.20;79.50;;;;;;5081372;28;20476;-65
2022/03/27 04:53:38;;;;;;;12.13;10.93;;;10.20;79.70;;;;;;5081874;28;20471;-65
2022/03/27 04:56:05;;;;;;;10.70;9.27;;;10.20;80.30;;;;;;5082049;28;20456;-65
2022/03/27 04:58:32;;;;;;;9.47;8.57;;;10.20;81.10;;;;;;5091054;28;20444;-65
2022/03/27 05:00:59;;;;;;;9.43;8.20;;;10.20;81.70;;;;;;5084289;28;20468;-64
2022/03/27 05:03:26;;;;;;;9.73;8.13;;;10.30;82.10;;;;;;5081905;28;20444;-64
2022/03/27 05:05:54;;;;;;;9.13;8.20;;;10.30;82.30;;;;;;5090202;28;20456;-65
2022/03/27 05:08:21;;;;;;;9.43;8.43;;;10.30;82.50;;;;;;5082523;28;20487;-63
2022/03/27 05:10:48;;;;;;;12.23;10.83;;;10.30;83.10;;;;;;5081927;28;20473;-65
2022/03/27 05:13:14;;;;;;;10.90;9.80;;;10.40;83.70;;;;;;5083291;28;20439;-63
2022/03/27 05:15:41;;;;;;;14.60;11.60;;;10.40;84.50;;;;;;5082844;28;20493;-64
2022/03/27 05:18:08;;;;;;;16.37;12.80;;;10.40;85.70;;;;;;5082654;28;20441;-64
2022/03/27 05:20:39;;;;;;;16.17;13.73;;;10.50;86.90;;;;;;5082552;28;20904;-64
2022/03/27 05:23:08;;;;;;;19.63;14.60;;;10.50;88.00;;;;;;5082357;28;20797;-62
2022/03/27 05:25:40;;;;;;;19.90;16.80;;;10.50;89.00;;;;;;5082106;28;20441;-64
2022/03/27 05:28:09;;;;;;;21.50;17.83;;;10.60;90.00;;;;;;5082628;28;20465;-64
2022/03/27 05:30:37;;;;;;;22.50;18.93;;;10.60;90.70;;;;;;5082230;28;20445;-64
2022/03/27 05:33:04;;;;;;;22.17;18.67;;;10.70;91.20;;;;;;5082555;28;20445;-64
2022/03/27 05:35:31;;;;;;;24.70;20.67;;;10.70;91.80;;;;;;5081951;28;20449;-64
2022/03/27 05:37:58;;;;;;;23.97;19.20;;;10.70;92.30;;;;;;5081160;28;20967;-64
2022/03/27 05:40:28;;;;;;;26.60;19.50;;;10.80;92.80;;;;;;5080687;28;20484;-64
2022/03/27 05:42:54;;;;;;;31.43;21.40;;;10.80;93.20;;;;;;5080735;28;21019;-64
2022/03/27 05:45:23;;;;;;;31.80;24.23;;;10.90;93.50;;;;;;5080788;28;20968;-64
2022/03/27 05:47:50;;;;;;;38.10;28.10;;;10.90;93.90;;;;;;5079542;28;20477;-63
2022/03/27 05:50:19;;;;;;;37.63;28.43;;;10.90;94.40;;;;;;5074811;28;20445;-63
2022/03/27 05:52:46;;;;;;;39.90;28.70;;;10.90;94.80;;;;;;5074783;28;20452;-63
2022/03/27 05:55:13;;;;;;;41.13;30.17;;;11.00;95.30;;;;;;5074706;28;20457;-64
2022/03/27 05:57:42;;;;;;;40.53;27.43;;;11.00;95.50;;;;;;5074675;28;20437;-64
2022/03/27 06:00:12;;;;;;;46.60;29.23;;;11.10;95.80;;;;;;5075258;28;20452;-64
2022/03/27 06:02:39;;;;;;;43.27;28.60;;;11.10;95.80;;;;;;5074534;28;20473;-64
2022/03/27 06:05:07;;;;;;;38.20;27.60;;;11.10;95.90;;;;;;5074651;28;20452;-64
2022/03/27 06:07:42;;;;;;;46.83;29.83;;;11.20;95.70;;;;;;5074420;28;20494;-63
2022/03/27 06:10:10;;;;;;;38.40;25.50;;;11.20;96.00;;;;;;5074455;28;20429;-63
2022/03/27 06:12:36;;;;;;;37.00;26.50;;;11.30;96.00;;;;;;5073282;28;20465;-63
2022/03/27 06:15:05;;;;;;;40.27;25.77;;;11.30;96.30;;;;;;5074370;28;20449;-63
2022/03/27 06:17:39;;;;;;;43.80;29.00;;;11.30;95.70;;;;;;5073949;28;20441;-63
2022/03/27 06:20:07;;;;;;;39.23;27.97;;;11.40;96.20;;;;;;5073896;28;20492;-63
2022/03/27 06:22:34;;;;;;;41.13;27.37;;;11.50;96.40;;;;;;5073810;28;20548;-63
2022/03/27 06:25:02;;;;;;;42.20;29.80;;;11.60;96.60;;;;;;5074078;28;20480;-63
2022/03/27 06:27:28;;;;;;;36.23;26.97;;;11.60;96.10;;;;;;5073739;28;20510;-63
2022/03/27 06:29:55;;;;;;;47.50;28.40;;;11.60;96.30;;;;;;5074194;28;20452;-63
2022/03/27 06:32:26;;;;;;;40.90;26.80;;;11.70;96.50;;;;;;5073938;28;20515;-63
2022/03/27 06:34:56;;;;;;;42.70;27.30;;;11.70;96.50;;;;;;5073839;28;20433;-63
2022/03/27 06:37:23;;;;;;;35.80;25.50;;;11.80;96.30;;;;;;5073918;28;20468;-63
2022/03/27 06:39:50;;;;;;;35.53;24.47;;;11.80;96.10;;;;;;5073662;28;20814;-62
2022/03/27 06:42:16;;;;;;;47.53;29.10;;;11.90;96.10;;;;;;5073791;28;20476;-63
2022/03/27 06:44:43;;;;;;;38.90;26.00;;;11.90;95.70;;;;;;5073792;28;20491;-63
2022/03/27 06:47:10;;;;;;;45.07;26.67;;;12.00;96.20;;;;;;5073781;28;20479;-63
2022/03/27 06:49:38;;;;;;;39.73;27.70;;;12.00;96.50;;;;;;5073730;28;20489;-63
2022/03/27 06:52:06;;;;;;;33.60;24.80;;;12.10;96.60;;;;;;5073794;28;20473;-63
2022/03/27 06:54:33;;;;;;;43.63;26.47;;;12.10;96.60;;;;;;5074183;28;20824;-63
2022/03/27 06:57:00;;;;;;;38.17;26.67;;;12.20;96.70;;;;;;5073759;28;20472;-63
2022/03/27 06:59:27;;;;;;;37.67;24.07;;;12.20;96.70;;;;;;5073679;28;20818;-64
2022/03/27 07:04:39;;;;;;;37.60;24.83;;;12.30;96.00;;;;;;5073349;28;20483;-64
2022/03/27 07:07:06;;;;;;;32.27;23.53;;;12.40;96.00;;;;;;5073651;28;20790;-64
2022/03/27 07:09:33;;;;;;;42.60;29.00;;;12.40;95.80;;;;;;5073233;28;20484;-63
2022/03/27 07:11:59;;;;;;;35.50;24.97;;;12.50;95.80;;;;;;5073411;28;20467;-64
2022/03/27 07:14:26;;;;;;;40.93;27.00;;;12.50;96.20;;;;;;5073501;28;20454;-64
2022/03/27 07:16:53;;;;;;;36.93;28.17;;;12.60;95.90;;;;;;5073506;28;20444;-64
2022/03/27 07:19:19;;;;;;;38.67;26.50;;;12.60;95.90;;;;;;5073476;28;20452;-63
2022/03/27 07:21:48;;;;;;;35.83;24.53;;;12.70;96.10;;;;;;5073279;28;20460;-63
2022/03/27 07:24:14;;;;;;;34.30;25.37;;;12.80;96.00;;;;;;5073479;28;20445;-63
2022/03/27 07:26:43;;;;;;;32.17;23.23;;;12.80;95.60;;;;;;5073337;28;20448;-64
2022/03/27 07:29:11;;;;;;;37.37;25.17;;;12.80;95.70;;;;;;5073234;28;20476;-64
2022/03/27 07:31:38;;;;;;;34.40;26.20;;;12.90;95.60;;;;;;5073618;28;20559;-64
2022/03/27 07:34:04;;;;;;;30.40;22.93;;;12.90;95.30;;;;;;5073486;28;20449;-63
2022/03/27 07:36:32;;;;;;;28.77;23.33;;;13.00;95.30;;;;;;5073820;28;20447;-63
2022/03/27 07:39:00;;;;;;;31.13;22.17;;;13.00;95.00;;;;;;5073264;28;20951;-64
2022/03/27 07:41:27;;;;;;;28.60;23.13;;;13.00;94.40;;;;;;5073354;28;20468;-64
2022/03/27 07:43:53;;;;;;;28.77;22.57;;;13.10;94.60;;;;;;5073183;28;20452;-64
2022/03/27 07:46:20;;;;;;;33.27;24.27;;;13.10;94.20;;;;;;5073839;28;20444;-63
2022/03/27 07:48:47;;;;;;;31.63;24.17;;;13.20;94.10;;;;;;5073095;28;20486;-63
2022/03/27 07:51:14;;;;;;;41.20;30.30;;;13.20;94.20;;;;;;5073040;28;20473;-63
2022/03/27 07:53:41;;;;;;;41.07;27.77;;;13.30;93.90;;;;;;5073155;28;20457;-63
2022/03/27 07:56:09;;;;;;;37.20;28.40;;;13.30;94.10;;;;;;5073115;28;20429;-63
2022/03/27 07:58:36;;;;;;;46.33;30.90;;;13.30;94.30;;;;;;5073426;28;20448;-64
2022/03/27 08:01:04;;;;;;;38.90;29.27;;;13.30;94.30;;;;;;5072898;28;21013;-63
2022/03/27 08:03:30;;;;;;;44.80;30.47;;;13.40;94.40;;;;;;5073282;28;20447;-63
2022/03/27 08:05:57;;;;;;;49.87;32.60;;;13.40;94.40;;;;;;5073482;28;20449;-63
2022/03/27 08:08:24;;;;;;;40.63;27.43;;;13.50;93.90;;;;;;5073066;28;20492;-63
2022/03/27 08:10:51;;;;;;;41.97;28.43;;;13.50;93.90;;;;;;5072929;28;20980;-63
2022/03/27 08:13:19;;;;;;;34.10;24.80;;;13.50;93.60;;;;;;5072708;28;20943;-64
2022/03/27 08:15:46;;;;;;;41.70;29.13;;;13.60;93.20;;;;;;5072792;28;20444;-64
2022/03/27 08:18:13;;;;;;;44.20;29.50;;;13.60;93.50;;;;;;5072669;28;20808;-64
2022/03/27 08:20:41;;;;;;;41.33;28.23;;;13.70;93.60;;;;;;5072868;28;20503;-64
2022/03/27 08:23:08;;;;;;;41.10;28.80;;;13.70;93.30;;;;;;5072749;28;20517;-64
2022/03/27 08:28:21;;;;;;;43.37;29.30;;;13.90;93.00;;;;;;5072975;28;20467;-64
2022/03/27 08:30:48;;;;;;;37.83;27.80;;;14.00;93.10;;;;;;5072728;28;20472;-64
2022/03/27 08:33:16;;;;;;;38.63;29.13;;;14.10;93.00;;;;;;5072754;28;20451;-64
2022/03/27 08:35:43;;;;;;;34.45;23.13;;;14.10;92.90;;;;;;5075290;28;20438;-65
2022/03/27 08:38:10;;;;;;;34.67;24.83;;;14.10;90.80;;;;;;5076935;28;20194;-64
2022/03/27 08:40:38;;;;;;;34.73;26.70;;;14.20;90.50;;;;;;5076674;28;20506;-64
2022/03/27 08:43:08;;;;;;;38.50;25.50;;;14.30;90.70;;;;;;5077069;28;20495;-65
2022/03/27 08:45:37;;;;;;;40.60;26.00;;;14.40;91.10;;;;;;5076264;28;20436;-64
2022/03/27 08:48:05;;;;;;;36.63;25.80;;;14.50;91.20;;;;;;5076051;28;20515;-64
2022/03/27 08:50:38;;;;;;;33.73;24.00;;;14.60;90.90;;;;;;5075784;28;20958;-65
2022/03/27 08:53:06;;;;;;;36.37;26.80;;;14.70;90.50;;;;;;5076259;28;20429;-64
2022/03/27 08:55:40;;;;;;;33.03;25.23;;;14.80;90.10;;;;;;5076170;28;20445;-64
2022/03/27 08:58:09;;;;;;;37.20;27.00;;;15.00;90.10;;;;;;5076063;28;20437;-64
2022/03/27 09:00:38;;;;;;;36.30;27.03;;;15.00;90.00;;;;;;5075797;28;20545;-63
2022/03/27 09:03:06;;;;;;;30.80;24.20;;;15.20;89.70;;;;;;5075930;28;20451;-64
2022/03/27 09:05:35;;;;;;;36.13;25.53;;;15.20;88.60;;;;;;5076043;28;20445;-64
2022/03/27 09:08:07;;;;;;;27.50;23.13;;;15.30;87.90;;;;;;5076296;28;20455;-64
2022/03/27 09:10:34;;;;;;;34.53;27.10;;;15.40;87.10;;;;;;5075472;28;20966;-63
2022/03/27 09:13:01;;;;;;;34.20;28.00;;;15.50;86.40;;;;;;5075270;28;20967;-63
2022/03/27 09:15:28;;;;;;;36.83;29.47;;;15.60;86.20;;;;;;5075654;28;20459;-64
2022/03/27 09:18:01;;;;;;;32.37;25.87;;;15.60;85.50;;;;;;5075528;28;20470;-63
2022/03/27 09:20:38;;;;;;;26.00;19.17;;;15.70;86.10;;;;;;5075019;28;20426;-64
2022/03/27 09:23:24;;;;;;;29.17;18.60;;;15.80;79.70;;;;;;5075446;28;20431;-63
2022/03/27 09:25:55;;;;;;;29.77;21.80;;;15.90;77.90;;;;;;5076365;28;20460;-65
2022/03/27 09:28:28;;;;;;;30.93;24.10;;;16.00;73.90;;;;;;5075607;28;20931;-64
2022/03/27 09:30:56;;;;;;;28.50;23.60;;;16.10;74.90;;;;;;5075303;28;20504;-64
2022/03/27 09:33:46;;;;;;;26.43;22.93;;;16.20;80.80;;;;;;5075533;28;20444;-65
2022/03/27 09:36:14;;;;;;;26.67;22.70;;;16.30;80.80;;;;;;5075150;28;20532;-65
2022/03/27 09:38:42;;;;;;;27.30;23.20;;;16.50;81.10;;;;;;5075081;28;20449;-65
2022/03/27 09:41:46;;;;;;;25.80;22.87;;;16.60;80.60;;;;;;5075024;28;20481;-64
2022/03/27 09:44:15;;;;;;;27.80;22.00;;;16.80;79.50;;;;;;5074614;28;20829;-66
2022/03/27 09:46:50;;;;;;;598.73;53.27;;;17.00;78.60;;;;;;5075024;28;20444;-71
2022/03/27 09:49:20;;;;;;;356.37;41.97;;;17.30;75.30;;;;;;5074769;28;20480;-67
2022/03/27 09:51:54;;;;;;;576.20;50.60;;;17.50;77.60;;;;;;5074614;28;21068;-67
2022/03/27 09:54:22;;;;;;;52.40;23.87;;;17.90;76.60;;;;;;5074975;28;20448;-68
2022/03/27 09:56:50;;;;;;;38.30;23.60;;;18.10;71.70;;;;;;5074799;28;20514;-68
2022/03/27 09:59:27;;;;;;;25.07;22.43;;;18.50;70.70;;;;;;5074435;28;20991;-68
2022/03/27 10:01:54;;;;;;;30.83;21.17;;;19.00;71.90;;;;;;5074529;28;20465;-68
2022/03/27 10:04:22;;;;;;;21.27;19.07;;;19.30;69.80;;;;;;5074515;28;20460;-68
2022/03/27 10:06:49;;;;;;;23.27;20.77;;;19.40;64.40;;;;;;5074589;28;20456;-68
2022/03/27 10:09:16;;;;;;;21.13;18.97;;;19.50;64.70;;;;;;5074587;28;20492;-67
2022/03/27 10:11:44;;;;;;;22.60;20.20;;;19.50;65.70;;;;;;5074099;28;20984;-67
2022/03/27 10:14:11;;;;;;;23.40;21.00;;;19.40;64.50;;;;;;5074376;28;20494;-68
2022/03/27 10:16:46;;;;;;;21.93;19.83;;;19.10;63.10;;;;;;5074467;28;20483;-68
2022/03/27 10:19:22;;;;;;;25.17;19.77;;;19.00;63.70;;;;;;5073839;28;20835;-67
2022/03/27 10:21:52;;;;;;;125.27;26.70;;;19.20;64.20;;;;;;5074340;28;20568;-68
2022/03/27 10:24:22;;;;;;;21.40;19.20;;;19.60;67.80;;;;;;5074339;28;20460;-68
2022/03/27 10:26:49;;;;;;;20.20;18.20;;;20.20;67.10;;;;;;5074205;28;20449;-68
2022/03/27 10:29:16;;;;;;;21.00;18.80;;;20.70;64.30;;;;;;5074059;28;20892;-68
2022/03/27 10:31:43;;;;;;;21.23;16.90;;;21.30;60.30;;;;;;5074266;28;20475;-68
2022/03/27 10:34:12;;;;;;;20.53;18.53;;;21.70;59.20;;;;;;5074336;28;20970;-68
2022/03/27 10:36:49;;;;;;;18.57;16.87;;;22.50;58.20;;;;;;5074008;28;20455;-69
2022/03/27 10:39:24;;;;;;;20.83;18.80;;;23.10;56.30;;;;;;5073685;28;20440;-69
2022/03/27 10:42:02;;;;;;;17.93;16.20;;;23.60;54.10;;;;;;5074169;28;20511;-69
2022/03/27 10:44:36;;;;;;;20.30;18.37;;;24.10;52.70;;;;;;5076270;28;20447;-68
2022/03/27 10:47:14;;;;;;;19.50;17.43;;;24.70;50.80;;;;;;5088110;28;20457;-67
2022/03/27 10:49:42;;;;;;;23.47;21.13;;;25.20;48.30;;;;;;5086247;28;20484;-68
2022/03/27 10:52:09;;;;;;;23.27;20.87;;;25.30;46.60;;;;;;5087537;28;20457;-69
2022/03/27 10:55:00;;;;;;;24.17;21.83;;;24.70;46.60;;;;;;5087630;28;20459;-69
2022/03/27 10:57:31;;;;;;;21.70;19.50;;;24.60;48.20;;;;;;5087749;28;20449;-69
2022/03/27 10:59:58;;;;;;;25.00;22.50;;;24.50;47.60;;;;;;5088350;28;20439;-70
2022/03/27 11:02:45;;;;;;;24.53;22.07;;;24.70;47.60;;;;;;5088489;28;20464;-69
2022/03/27 11:05:46;;;;;;;27.40;24.43;;;25.00;45.50;;;;;;5087893;28;20476;-70
2022/03/27 11:08:45;;;;;;;26.57;23.77;;;25.30;45.00;;;;;;5087620;28;20472;-70
2022/03/27 11:11:33;;;;;;;29.57;26.30;;;25.60;43.80;;;;;;5088029;28;20514;-67
2022/03/27 11:14:01;;;;;;;30.90;27.80;;;26.10;42.50;;;;;;5087131;28;20432;-66
2022/03/27 11:16:28;;;;;;;37.17;33.27;;;26.40;42.70;;;;;;5086512;28;20444;-67
2022/03/27 11:18:55;;;;;;;36.13;32.33;;;26.80;41.40;;;;;;5086489;28;20448;-66
2022/03/27 11:21:45;;;;;;;36.90;32.90;;;27.00;40.80;;;;;;5087230;28;20625;-66
2022/03/27 11:24:27;;;;;;;55.87;37.00;;;27.00;40.60;;;;;;5085412;28;20441;-69
2022/03/27 11:26:54;;;;;;;38.67;34.70;;;27.10;40.20;;;;;;5081458;28;20461;-66
2022/03/27 11:29:24;;;;;;;43.10;37.43;;;27.20;39.20;;;;;;5081826;28;20485;-67
2022/03/27 11:32:07;;;;;;;42.70;37.47;;;27.30;39.50;;;;;;5082272;28;20468;-65
2022/03/27 11:34:34;;;;;;;45.50;40.60;;;27.50;39.40;;;;;;5079726;28;20433;-64
2022/03/27 11:37:25;;;;;;;43.40;39.00;;;27.80;37.70;;;;;;5080747;28;20445;-64
2022/03/27 11:39:53;;;;;;;43.97;39.47;;;28.00;37.80;;;;;;5076391;28;20536;-66
2022/03/27 11:42:29;;;;;;;45.53;41.00;;;28.20;36.80;;;;;;5079457;28;21003;-66
2022/03/27 11:45:17;;;;;;;44.10;39.90;;;28.30;36.60;;;;;;5078844;28;20443;-65
2022/03/27 11:47:45;;;;;;;50.50;45.30;;;28.60;35.20;;;;;;5079152;28;20475;-66
2022/03/27 11:50:22;;;;;;;45.93;41.60;;;28.60;35.10;;;;;;5083637;28;20467;-67
2022/03/27 11:52:49;;;;;;;44.97;40.50;;;28.10;37.50;;;;;;5085341;28;20429;-67
2022/03/27 11:55:18;;;;;;;47.27;42.80;;;28.30;36.50;;;;;;5080692;28;20498;-67
2022/03/27 11:57:46;;;;;;;43.93;39.77;;;27.80;36.70;;;;;;5079497;28;20457;-65
2022/03/27 12:00:16;;;;;;;38.33;34.57;;;27.90;36.80;;;;;;5077573;28;20444;-66
2022/03/27 12:02:45;;;;;;;39.80;36.10;;;28.40;36.00;;;;;;5076850;28;20441;-63
2022/03/27 12:05:13;;;;;;;37.03;33.33;;;28.90;34.80;;;;;;5076194;28;20456;-65
2022/03/27 12:07:52;;;;;;;37.83;34.33;;;29.50;34.10;;;;;;5075613;28;20456;-66
2022/03/27 12:10:18;;;;;;;38.43;35.03;;;30.30;33.00;;;;;;5078034;28;20476;-65
2022/03/27 12:13:03;;;;;;;37.77;34.50;;;30.80;31.60;;;;;;5078881;28;20459;-65
2022/03/27 12:15:43;;;;;;;37.20;34.00;;;31.30;30.70;;;;;;5077664;28;20495;-65
2022/03/27 12:18:10;;;;;;;34.00;31.10;;;31.80;29.60;;;;;;5077401;28;20439;-66
2022/03/27 12:20:45;;;;;;;35.33;32.20;;;32.30;29.40;;;;;;5087622;28;20436;-66
2022/03/27 12:23:25;;;;;;;34.00;30.83;;;32.60;28.30;;;;;;5093300;28;20447;-66
2022/03/27 12:26:04;;;;;;;33.70;30.80;;;33.00;28.00;;;;;;5086323;28;20439;-65
2022/03/27 12:31:23;;;;;;;36.17;33.07;;;34.00;26.70;;;;;;5077751;28;20497;-65
2022/03/27 12:33:51;;;;;;;33.90;31.00;;;34.60;26.10;;;;;;5078465;28;20911;-65
2022/03/27 12:36:18;;;;;;;35.90;32.90;;;34.80;25.60;;;;;;5078322;28;20531;-65
2022/03/27 12:38:45;;;;;;;33.37;30.67;;;34.80;25.40;;;;;;5078216;28;20447;-66
2022/03/27 12:41:12;;;;;;;33.90;31.00;;;34.90;25.10;;;;;;5078230;28;20460;-65
2022/03/27 12:43:42;;;;;;;34.27;31.43;;;35.10;25.50;;;;;;5077762;28;20194;-66
2022/03/27 12:46:22;;;;;;;30.37;27.87;;;35.40;25.00;;;;;;5078527;28;20447;-66
2022/03/27 12:48:59;;;;;;;28.57;26.23;;;35.60;24.40;;;;;;5082382;28;20268;-66
2022/03/27 12:51:26;;;;;;;34.00;31.20;;;35.80;23.90;;;;;;5078105;28;20232;-66